createdAt,value
2022-08-27T00:01:26.454Z,13.80
2022-08-27T00:03:57.296Z,13.90
2022-08-27T00:06:26.207Z,13.90
2022-08-27T00:08:54.656Z,13.90
2022-08-27T00:11:25.679Z,14.20
2022-08-27T00:13:53.488Z,14.10
2022-08-27T00:16:21.337Z,14.00
2022-08-27T00:18:51.244Z,14.10
2022-08-27T00:21:19.016Z,14.10
2022-08-27T00:23:46.499Z,14.10
2022-08-27T00:26:15.152Z,14.10
2022-08-27T00:28:43.165Z,14.20
2022-08-27T00:31:12.186Z,14.20
2022-08-27T00:33:40.947Z,14.20
2022-08-27T00:36:09.016Z,14.30
2022-08-27T00:38:37.645Z,14.40
2022-08-27T00:41:07.846Z,14.50
2022-08-27T00:44:04.716Z,14.60
2022-08-27T00:46:43.707Z,14.70
2022-08-27T00:49:18.394Z,14.80
2022-08-27T00:51:51.547Z,14.80
2022-08-27T00:54:19.724Z,14.90
2022-08-27T00:56:51.409Z,15.00
2022-08-27T00:59:23.724Z,15.00
2022-08-27T01:02:10.758Z,15.00
2022-08-27T01:04:40.812Z,15.00
2022-08-27T01:07:09.625Z,15.10
2022-08-27T01:09:38.864Z,15.10
2022-08-27T01:12:06.237Z,15.10
2022-08-27T01:14:34.175Z,15.10
2022-08-27T01:17:02.902Z,15.20
2022-08-27T01:19:54.363Z,15.20
2022-08-27T01:22:44.208Z,15.30
2022-08-27T01:25:15.427Z,15.40
2022-08-27T01:27:44.885Z,15.50
2022-08-27T01:30:15.705Z,15.50
2022-08-27T01:32:44.377Z,15.60
2022-08-27T01:35:14.108Z,15.70
2022-08-27T01:37:43.037Z,15.60
2022-08-27T01:40:13.569Z,15.60
2022-08-27T01:42:47.587Z,15.70
2022-08-27T01:45:18.970Z,15.60
2022-08-27T01:47:47.070Z,15.60
2022-08-27T01:50:24.954Z,15.70
2022-08-27T01:52:53.702Z,15.80
2022-08-27T01:55:23.879Z,15.80
2022-08-27T01:57:52.234Z,15.80
2022-08-27T02:00:29.709Z,15.80
2022-08-27T02:02:57.748Z,15.70
2022-08-27T02:05:26.189Z,15.80
2022-08-27T02:07:54.574Z,15.80
2022-08-27T02:10:42.303Z,15.80
2022-08-27T02:13:09.655Z,15.80
2022-08-27T02:15:37.995Z,15.90
2022-08-27T02:18:06.670Z,15.90
2022-08-27T02:20:34.965Z,16.00
2022-08-27T02:23:04.736Z,16.10
2022-08-27T02:25:32.183Z,16.00
2022-08-27T02:28:00.508Z,16.10
2022-08-27T02:30:29.715Z,16.10
2022-08-27T02:32:57.042Z,16.20
2022-08-27T02:35:25.362Z,16.20
2022-08-27T02:37:52.952Z,16.30
2022-08-27T02:40:22.853Z,16.40
2022-08-27T02:42:50.668Z,16.40
2022-08-27T02:45:18.992Z,16.50
2022-08-27T02:47:46.378Z,16.60
2022-08-27T02:50:14.898Z,16.70
2022-08-27T02:52:42.318Z,16.60
2022-08-27T02:55:09.855Z,16.70
2022-08-27T02:57:37.465Z,16.70
2022-08-27T03:00:11.533Z,16.80
2022-08-27T03:02:41.724Z,16.70
2022-08-27T03:05:11.152Z,16.80
2022-08-27T03:07:38.487Z,16.80
2022-08-27T03:10:06.754Z,16.70
2022-08-27T03:12:36.556Z,16.70
2022-08-27T03:15:06.621Z,16.70
2022-08-27T03:17:52.652Z,16.70
2022-08-27T03:20:19.949Z,16.80
2022-08-27T03:22:47.582Z,17.00
2022-08-27T03:25:15.210Z,17.00
2022-08-27T03:27:42.597Z,17.00
2022-08-27T03:30:17.760Z,16.90
2022-08-27T03:32:46.508Z,17.00
2022-08-27T03:35:15.042Z,17.10
2022-08-27T03:37:42.407Z,17.10
2022-08-27T03:40:10.261Z,17.10
2022-08-27T03:42:39.311Z,17.10
2022-08-27T03:45:08.484Z,17.10
2022-08-27T03:47:37.022Z,17.10
2022-08-27T03:50:06.243Z,17.20
2022-08-27T03:52:34.824Z,17.20
2022-08-27T03:55:02.500Z,17.30
2022-08-27T03:57:29.935Z,17.30
2022-08-27T03:59:57.290Z,17.30
2022-08-27T04:02:25.277Z,17.40
2022-08-27T04:04:52.570Z,17.40
2022-08-27T04:07:20.250Z,17.40
2022-08-27T04:09:47.662Z,17.50
2022-08-27T04:12:14.983Z,17.40
2022-08-27T04:14:42.261Z,17.40
2022-08-27T04:17:09.535Z,17.40
2022-08-27T04:19:36.900Z,17.50
2022-08-27T04:22:06.507Z,17.50
2022-08-27T04:24:36.060Z,17.60
2022-08-27T04:27:04.078Z,17.50
2022-08-27T04:29:32.026Z,17.50
2022-08-27T04:31:59.998Z,17.50
2022-08-27T04:34:27.587Z,17.60
2022-08-27T04:36:58.295Z,17.60
2022-08-27T04:39:27.178Z,17.70
2022-08-27T04:41:56.400Z,17.70
2022-08-27T04:44:24.647Z,17.70
2022-08-27T04:46:57.774Z,17.70
2022-08-27T04:49:26.571Z,17.70
2022-08-27T04:51:54.646Z,17.70
2022-08-27T04:54:32.179Z,17.80
2022-08-27T04:57:00.115Z,17.90
2022-08-27T04:59:27.519Z,18.10
2022-08-27T05:01:58.621Z,18.10
2022-08-27T05:04:26.683Z,18.20
2022-08-27T05:06:54.985Z,18.40
2022-08-27T05:09:24.645Z,18.60
2022-08-27T05:11:55.659Z,18.60
2022-08-27T05:14:25.546Z,18.90
2022-08-27T05:16:52.887Z,18.90
2022-08-27T05:19:20.258Z,19.00
2022-08-27T05:21:50.418Z,19.20
2022-08-27T05:24:20.041Z,19.40
2022-08-27T05:26:51.018Z,19.40
2022-08-27T05:29:18.764Z,19.50
2022-08-27T05:31:48.151Z,19.50
2022-08-27T05:34:16.450Z,19.50
2022-08-27T05:36:53.371Z,19.80
2022-08-27T05:39:20.867Z,19.60
2022-08-27T05:41:48.415Z,19.80
2022-08-27T05:44:40.617Z,20.20
2022-08-27T05:47:05.190Z,20.60
2022-08-27T05:49:36.143Z,20.40
2022-08-27T05:52:08.295Z,20.50
2022-08-27T05:54:39.030Z,21.10
2022-08-27T05:57:06.580Z,21.10
2022-08-27T05:59:52.586Z,21.50
2022-08-27T06:02:20.746Z,21.60
2022-08-27T06:04:48.967Z,21.50
2022-08-27T06:07:19.400Z,21.30
2022-08-27T06:09:47.379Z,21.60
2022-08-27T06:12:14.763Z,21.80
2022-08-27T06:14:42.466Z,21.50
2022-08-27T06:17:10.078Z,21.40
2022-08-27T06:19:37.428Z,21.50
2022-08-27T06:22:10.146Z,22.40
2022-08-27T06:24:42.441Z,23.00
2022-08-27T06:27:13.263Z,24.00
2022-08-27T06:29:42.266Z,23.90
2022-08-27T06:32:10.575Z,23.90
2022-08-27T06:34:38.832Z,24.50
2022-08-27T06:37:07.255Z,24.70
2022-08-27T06:39:36.397Z,24.50
2022-08-27T06:42:05.601Z,24.50
2022-08-27T06:44:34.032Z,24.10
2022-08-27T06:47:01.443Z,23.70
2022-08-27T06:49:29.076Z,23.30
2022-08-27T06:51:56.697Z,23.10
2022-08-27T06:54:24.130Z,23.10
2022-08-27T06:56:52.553Z,23.40
2022-08-27T06:59:20.881Z,23.90
2022-08-27T07:01:51.591Z,23.60
2022-08-27T07:04:22.578Z,24.00
2022-08-27T07:06:58.355Z,24.10
2022-08-27T07:09:25.787Z,23.50
2022-08-27T07:11:53.082Z,23.50
2022-08-27T07:14:20.656Z,23.70
2022-08-27T07:16:49.040Z,23.40
2022-08-27T07:19:19.059Z,23.60
2022-08-27T07:21:48.584Z,24.00
2022-08-27T07:24:16.138Z,24.40
2022-08-27T07:26:44.478Z,24.50
2022-08-27T07:29:15.243Z,24.70
2022-08-27T07:31:44.003Z,24.60
2022-08-27T07:34:11.737Z,23.80
2022-08-27T07:36:39.395Z,23.90
2022-08-27T07:39:07.720Z,25.20
2022-08-27T07:41:55.672Z,26.00
2022-08-27T07:44:26.135Z,26.60
2022-08-27T07:46:56.234Z,27.40
2022-08-27T07:49:27.875Z,28.10
2022-08-27T07:51:56.309Z,29.00
2022-08-27T07:54:25.329Z,30.10
2022-08-27T07:56:55.534Z,29.40
2022-08-27T07:59:27.448Z,29.40
2022-08-27T08:01:56.381Z,28.80
2022-08-27T08:04:24.904Z,29.50
2022-08-27T08:06:52.639Z,31.00
2022-08-27T08:09:22.431Z,29.00
2022-08-27T08:11:50.959Z,30.00
2022-08-27T08:14:19.921Z,29.70
2022-08-27T08:16:48.309Z,29.90
2022-08-27T08:19:16.111Z,28.00
2022-08-27T08:21:43.818Z,27.30
2022-08-27T08:24:11.256Z,26.80
2022-08-27T08:26:39.789Z,25.90
2022-08-27T08:29:07.171Z,25.40
2022-08-27T08:31:34.959Z,25.20
2022-08-27T08:34:02.304Z,25.40
2022-08-27T08:36:30.390Z,25.20
2022-08-27T08:38:57.876Z,25.10
2022-08-27T08:41:43.797Z,25.50
2022-08-27T08:44:24.493Z,25.50
2022-08-27T08:47:01.464Z,25.20
2022-08-27T08:49:42.404Z,24.80
2022-08-27T08:52:42.682Z,24.90
2022-08-27T08:55:28.306Z,24.20
2022-08-27T08:58:33.941Z,23.90
2022-08-27T09:01:07.367Z,23.00
2022-08-27T09:03:40.998Z,23.00
2022-08-27T09:06:34.140Z,23.00
2022-08-27T09:09:30.491Z,23.00
2022-08-27T09:12:25.800Z,23.30
2022-08-27T09:15:05.068Z,23.20
2022-08-27T09:17:34.009Z,23.00
2022-08-27T09:20:01.570Z,23.20
2022-08-27T09:22:43.591Z,23.20
2022-08-27T09:25:20.919Z,23.20
2022-08-27T09:27:52.121Z,23.20
2022-08-27T09:30:25.559Z,23.50
2022-08-27T09:33:01.990Z,23.50
2022-08-27T09:35:43.547Z,23.60
2022-08-27T09:38:14.325Z,23.50
2022-08-27T09:40:48.662Z,23.60
2022-08-27T09:43:16.109Z,23.90
2022-08-27T09:45:56.510Z,23.50
2022-08-27T09:48:30.489Z,23.50
2022-08-27T09:51:01.813Z,23.50
2022-08-27T09:53:54.216Z,23.60
2022-08-27T09:56:50.815Z,23.80
2022-08-27T09:59:40.547Z,23.60
2022-08-27T10:02:18.185Z,23.70
2022-08-27T10:04:50.739Z,24.70
2022-08-27T10:07:29.853Z,24.40
2022-08-27T10:10:30.347Z,24.70
2022-08-27T10:13:34.660Z,24.20
2022-08-27T10:16:43.833Z,24.20
2022-08-27T10:19:30.114Z,24.20
2022-08-27T10:22:08.139Z,23.90
2022-08-27T10:25:03.778Z,24.10
2022-08-27T10:27:43.115Z,24.50
2022-08-27T10:30:50.435Z,24.20
2022-08-27T10:33:45.784Z,24.20
2022-08-27T10:36:17.093Z,24.30
2022-08-27T10:38:57.758Z,24.80
2022-08-27T10:41:34.308Z,25.10
2022-08-27T10:44:50.238Z,24.80
2022-08-27T10:47:32.220Z,25.00
2022-08-27T10:50:24.824Z,25.50
2022-08-27T10:53:31.117Z,25.70
2022-08-27T10:56:21.617Z,25.30
2022-08-27T10:59:11.842Z,26.00
2022-08-27T11:02:16.712Z,26.30
2022-08-27T11:04:50.398Z,25.80
2022-08-27T11:07:32.685Z,25.60
2022-08-27T11:10:09.818Z,24.90
2022-08-27T11:12:44.655Z,25.10
2022-08-27T11:15:18.058Z,25.20
2022-08-27T11:17:58.122Z,24.90
2022-08-27T11:20:35.356Z,25.40
2022-08-27T11:23:36.542Z,25.70
2022-08-27T11:26:05.938Z,25.30
2022-08-27T11:28:42.296Z,25.00
2022-08-27T11:31:22.118Z,25.00
2022-08-27T11:34:02.689Z,25.40
2022-08-27T11:36:54.633Z,25.60
2022-08-27T11:39:51.130Z,25.50
2022-08-27T11:42:37.945Z,26.40
2022-08-27T11:45:12.056Z,26.20
2022-08-27T11:47:40.005Z,26.40
2022-08-27T11:50:22.016Z,26.50
2022-08-27T11:53:07.059Z,26.20
2022-08-27T11:55:39.813Z,26.20
2022-08-27T11:58:20.619Z,26.40
2022-08-27T12:00:49.309Z,26.40
2022-08-27T12:03:20.424Z,26.40
2022-08-27T12:05:54.080Z,26.50
2022-08-27T12:08:30.040Z,26.90
2022-08-27T12:11:23.527Z,26.90
2022-08-27T12:14:00.356Z,26.70
2022-08-27T12:16:31.323Z,26.00
2022-08-27T12:19:36.109Z,25.30
2022-08-27T12:22:15.998Z,25.50
2022-08-27T12:24:56.098Z,25.40
2022-08-27T12:27:31.155Z,25.60
2022-08-27T12:30:01.558Z,26.00
2022-08-27T12:32:40.420Z,26.20
2022-08-27T12:35:19.889Z,26.30
2022-08-27T12:37:49.228Z,26.10
2022-08-27T12:40:31.790Z,25.50
2022-08-27T12:43:15.032Z,25.20
2022-08-27T12:46:08.338Z,24.80
2022-08-27T12:48:47.101Z,25.00
2022-08-27T12:51:25.046Z,25.30
2022-08-27T12:54:12.128Z,25.40
2022-08-27T12:57:06.306Z,25.30
2022-08-27T13:00:00.994Z,25.70
2022-08-27T13:02:47.330Z,25.90
2022-08-27T13:05:21.329Z,26.20
2022-08-27T13:07:50.415Z,26.50
2022-08-27T13:10:21.026Z,26.50
2022-08-27T13:13:00.852Z,26.60
2022-08-27T13:15:28.345Z,26.80
2022-08-27T13:17:55.825Z,26.60
2022-08-27T13:20:26.872Z,26.50
2022-08-27T13:22:55.685Z,26.60
2022-08-27T13:25:33.532Z,26.60
2022-08-27T13:28:15.088Z,26.70
2022-08-27T13:30:46.235Z,26.50
2022-08-27T13:33:25.275Z,26.50
2022-08-27T13:35:52.774Z,26.70
2022-08-27T13:38:22.269Z,26.70
2022-08-27T13:41:00.345Z,26.70
2022-08-27T13:43:43.414Z,26.70
2022-08-27T13:46:15.436Z,26.70
2022-08-27T13:48:45.844Z,26.60
2022-08-27T13:51:25.396Z,26.50
2022-08-27T13:54:11.405Z,26.60
2022-08-27T13:56:41.712Z,26.70
2022-08-27T13:59:24.277Z,26.40
2022-08-27T14:01:55.155Z,26.50
2022-08-27T14:04:27.277Z,26.70
2022-08-27T14:06:56.882Z,26.70
2022-08-27T14:09:28.375Z,27.00
2022-08-27T14:12:04.336Z,26.80
2022-08-27T14:14:41.274Z,26.70
2022-08-27T14:17:29.491Z,26.90
2022-08-27T14:20:02.508Z,27.10
2022-08-27T14:22:31.954Z,27.00
2022-08-27T14:24:59.372Z,26.80
2022-08-27T14:27:27.626Z,26.80
2022-08-27T14:29:55.780Z,26.40
2022-08-27T14:32:23.522Z,26.30
2022-08-27T14:34:53.947Z,26.10
2022-08-27T14:37:21.811Z,26.40
2022-08-27T14:39:49.552Z,26.60
2022-08-27T14:42:20.546Z,26.60
2022-08-27T14:44:48.403Z,26.60
2022-08-27T14:47:17.007Z,26.70
2022-08-27T14:49:46.759Z,26.60
2022-08-27T14:52:15.665Z,26.40
2022-08-27T14:54:44.454Z,26.20
2022-08-27T14:57:14.941Z,26.30
2022-08-27T14:59:42.692Z,26.20
2022-08-27T15:02:14.046Z,26.30
2022-08-27T15:04:42.374Z,26.10
2022-08-27T15:07:15.293Z,26.00
2022-08-27T15:09:42.839Z,26.10
2022-08-27T15:12:10.856Z,26.10
2022-08-27T15:14:54.339Z,26.10
2022-08-27T15:17:34.214Z,26.00
2022-08-27T15:20:08.352Z,26.00
2022-08-27T15:22:40.244Z,26.00
2022-08-27T15:25:12.549Z,26.00
2022-08-27T15:27:40.427Z,26.00
2022-08-27T15:30:10.279Z,26.00
2022-08-27T15:32:41.304Z,26.00
2022-08-27T15:35:14.330Z,26.00
2022-08-27T15:37:43.644Z,25.90
2022-08-27T15:40:13.739Z,25.90
2022-08-27T15:42:42.042Z,25.80
2022-08-27T15:45:11.696Z,25.70
2022-08-27T15:47:39.195Z,25.50
2022-08-27T15:50:07.715Z,25.30
2022-08-27T15:52:40.853Z,25.20
2022-08-27T15:55:23.416Z,25.10
2022-08-27T15:57:51.377Z,25.00
2022-08-27T16:00:21.374Z,24.90
2022-08-27T16:02:50.056Z,24.80
2022-08-27T16:05:19.606Z,24.70
2022-08-27T16:07:49.333Z,24.50
2022-08-27T16:10:16.904Z,24.40
2022-08-27T16:12:44.724Z,24.30
2022-08-27T16:15:12.424Z,24.10
2022-08-27T16:17:40.910Z,24.10
2022-08-27T16:20:11.032Z,24.00
2022-08-27T16:22:38.649Z,23.90
2022-08-27T16:25:07.440Z,23.80
2022-08-27T16:27:52.196Z,23.70
2022-08-27T16:33:55.061Z,23.50
2022-08-27T16:36:26.669Z,23.50
2022-08-27T16:38:55.558Z,23.40
2022-08-27T16:41:24.587Z,23.40
2022-08-27T16:43:52.379Z,23.40
2022-08-27T16:46:44.077Z,23.40
2022-08-27T16:49:51.389Z,23.40
2022-08-27T16:52:20.446Z,23.50
2022-08-27T16:54:48.089Z,23.40
2022-08-27T16:57:15.578Z,23.30
2022-08-27T16:59:43.266Z,23.30
2022-08-27T17:02:30.402Z,23.20
2022-08-27T17:05:17.838Z,23.20
2022-08-27T17:07:50.024Z,23.00
2022-08-27T17:10:20.670Z,22.90
2022-08-27T17:12:48.564Z,22.80
2022-08-27T17:15:19.629Z,22.80
2022-08-27T17:17:47.147Z,22.50
2022-08-27T17:20:15.768Z,22.50
2022-08-27T17:22:43.676Z,22.50
2022-08-27T17:25:12.026Z,22.40
2022-08-27T17:27:40.791Z,22.20
2022-08-27T17:30:09.685Z,22.20
2022-08-27T17:32:40.164Z,22.10
2022-08-27T17:35:08.646Z,22.00
2022-08-27T17:37:39.585Z,22.00
2022-08-27T17:40:08.223Z,21.80
2022-08-27T17:42:36.188Z,21.70
2022-08-27T17:45:06.575Z,21.60
2022-08-27T17:47:34.665Z,21.50
2022-08-27T17:50:02.979Z,21.40
2022-08-27T17:52:32.836Z,21.40
2022-08-27T17:55:00.360Z,21.30
2022-08-27T17:57:41.171Z,21.40
2022-08-27T18:00:11.828Z,21.30
2022-08-27T18:02:48.816Z,21.30
2022-08-27T18:05:18.593Z,21.30
2022-08-27T18:07:46.712Z,21.30
2022-08-27T18:10:17.553Z,21.20
2022-08-27T18:12:46.258Z,21.20
2022-08-27T18:15:22.866Z,21.20
2022-08-27T18:17:53.698Z,21.10
2022-08-27T18:20:24.308Z,21.10
2022-08-27T18:22:52.886Z,21.00
2022-08-27T18:25:25.174Z,20.90
2022-08-27T18:27:56.692Z,20.80
2022-08-27T18:30:26.113Z,20.80
2022-08-27T18:32:56.302Z,20.70
2022-08-27T18:35:26.855Z,20.70
2022-08-27T18:37:58.451Z,20.70
2022-08-27T18:40:30.807Z,20.50
2022-08-27T18:42:59.904Z,20.40
2022-08-27T18:45:29.682Z,20.50
2022-08-27T18:47:59.098Z,20.40
2022-08-27T18:50:27.585Z,20.40
2022-08-27T18:52:56.946Z,20.40
2022-08-27T18:55:28.518Z,20.40
2022-08-27T18:57:56.116Z,20.30
2022-08-27T19:00:25.341Z,20.30
2022-08-27T19:02:53.811Z,20.20
2022-08-27T19:05:25.364Z,20.10
2022-08-27T19:07:55.181Z,20.10
2022-08-27T19:10:25.206Z,20.00
2022-08-27T19:12:52.687Z,20.00
2022-08-27T19:15:21.186Z,19.90
2022-08-27T19:17:52.895Z,19.90
2022-08-27T19:20:21.368Z,19.90
2022-08-27T19:22:49.508Z,19.90
2022-08-27T19:25:19.109Z,19.90
2022-08-27T19:27:47.767Z,19.90
2022-08-27T19:30:18.197Z,19.80
2022-08-27T19:32:48.032Z,19.80
2022-08-27T19:35:22.638Z,19.80
2022-08-27T19:37:52.996Z,19.80
2022-08-27T19:40:22.696Z,19.70
2022-08-27T19:42:51.088Z,19.70
2022-08-27T19:45:22.946Z,19.60
2022-08-27T19:47:52.607Z,19.60
2022-08-27T19:50:23.454Z,19.50
2022-08-27T19:52:52.354Z,19.60
2022-08-27T19:55:19.983Z,19.50
2022-08-27T19:57:48.196Z,19.60
2022-08-27T20:00:20.510Z,19.60
2022-08-27T20:02:50.797Z,19.70
2022-08-27T20:05:20.280Z,19.70
2022-08-27T20:07:52.741Z,19.70
2022-08-27T20:10:25.847Z,19.70
2022-08-27T20:13:03.854Z,19.80
2022-08-27T20:15:31.381Z,19.70
2022-08-27T20:17:59.811Z,19.80
2022-08-27T20:20:29.473Z,19.80
2022-08-27T20:22:57.441Z,19.80
2022-08-27T20:25:26.214Z,19.80
2022-08-27T20:27:53.654Z,19.80
2022-08-27T20:30:25.546Z,19.80
2022-08-27T20:32:54.323Z,19.80
2022-08-27T20:35:22.467Z,19.80
2022-08-27T20:37:50.507Z,19.70
2022-08-27T20:40:23.693Z,19.70
2022-08-27T20:42:51.448Z,19.80
2022-08-27T20:45:19.592Z,19.80
2022-08-27T20:47:49.182Z,19.80
2022-08-27T20:50:18.496Z,19.80
2022-08-27T20:52:46.227Z,19.90
2022-08-27T20:55:14.866Z,19.80
2022-08-27T20:58:06.500Z,19.90
2022-08-27T21:00:36.279Z,19.90
2022-08-27T21:03:03.750Z,19.90
2022-08-27T21:05:34.640Z,19.90
2022-08-27T21:08:06.397Z,19.90
2022-08-27T21:10:34.646Z,19.80
2022-08-27T21:13:04.718Z,19.80
2022-08-27T21:15:32.745Z,19.80
2022-08-27T21:18:00.474Z,19.70
2022-08-27T21:20:27.920Z,19.70
2022-08-27T21:22:57.967Z,19.70
2022-08-27T21:25:27.038Z,19.80
2022-08-27T21:27:56.928Z,19.70
2022-08-27T21:30:27.426Z,19.80
2022-08-27T21:32:56.162Z,19.80
2022-08-27T21:35:29.055Z,19.80
2022-08-27T21:38:00.126Z,19.90
2022-08-27T21:40:29.764Z,19.90
2022-08-27T21:42:58.565Z,19.90
2022-08-27T21:45:25.929Z,19.80
2022-08-27T21:47:54.266Z,19.90
2022-08-27T21:50:23.847Z,19.90
2022-08-27T21:52:51.634Z,19.80
2022-08-27T21:55:19.116Z,19.70
2022-08-27T21:57:46.580Z,19.70
2022-08-27T22:00:37.386Z,19.60
2022-08-27T22:03:10.440Z,19.40
2022-08-27T22:05:40.139Z,19.10
2022-08-27T22:08:10.226Z,19.10
2022-08-27T22:10:39.813Z,18.80
2022-08-27T22:13:08.144Z,18.70
2022-08-27T22:15:36.102Z,18.60
2022-08-27T22:18:03.848Z,18.50
2022-08-27T22:20:31.225Z,18.50
2022-08-27T22:22:59.243Z,18.50
2022-08-27T22:25:27.705Z,18.40
2022-08-27T22:27:55.687Z,18.40
2022-08-27T22:30:23.453Z,18.30
2022-08-27T22:32:51.272Z,18.20
2022-08-27T22:35:19.606Z,18.00
2022-08-27T22:37:47.869Z,18.00
2022-08-27T22:40:19.956Z,17.80
2022-08-27T22:42:51.943Z,17.80
2022-08-27T22:45:20.215Z,17.70
2022-08-27T22:47:48.225Z,17.60
2022-08-27T22:50:16.111Z,17.60
2022-08-27T22:52:43.741Z,17.60
2022-08-27T22:55:13.851Z,17.60
2022-08-27T22:57:41.863Z,17.60
2022-08-27T23:00:19.815Z,17.40
2022-08-27T23:02:47.476Z,17.30
2022-08-27T23:05:16.284Z,17.30
2022-08-27T23:07:44.457Z,17.30
2022-08-27T23:10:14.599Z,17.20
2022-08-27T23:12:45.120Z,17.10
2022-08-27T23:15:16.249Z,17.10
2022-08-27T23:17:43.758Z,17.10
2022-08-27T23:20:13.478Z,17.10
2022-08-27T23:22:42.297Z,17.00
2022-08-27T23:25:29.910Z,17.00
2022-08-27T23:27:59.657Z,16.90
2022-08-27T23:30:28.277Z,16.90
2022-08-27T23:32:56.283Z,17.00
2022-08-27T23:35:25.966Z,16.90
2022-08-27T23:37:53.876Z,16.80
2022-08-27T23:40:22.257Z,16.80
2022-08-27T23:42:51.397Z,16.70
2022-08-27T23:45:22.437Z,16.80
2022-08-27T23:47:49.677Z,16.80
2022-08-27T23:50:17.616Z,16.80
2022-08-27T23:52:47.893Z,16.70
2022-08-27T23:55:15.761Z,16.70
2022-08-27T23:57:43.717Z,16.60
